Time;durP1;ratioP1;P1;durP2;ratioP2;P2;SDS_P1;SDS_P2;PMS_P1;PMS_P2;Temp;Humidity;BMP_temperature;BMP_pressure;BME280_temperature;BME280_humidity;BME280_pressure;Samples;Min_cycle;Max_cycle;Signal;HPM_P1;HPM_P2
2021/05/21 00:00:02;;;;;;;1.05;0.30;;;16.70;63.20;16.70;99585.00;;;;341036;28;91071;-86
2021/05/21 00:00:15;;;;;;;0.93;0.30;;;16.70;63.30;16.60;99594.00;;;;339981;28;83414;-87
2021/05/21 00:00:27;;;;;;;1.35;0.25;;;16.70;63.30;16.60;99589.00;;;;341898;28;94091;-86
2021/05/21 00:00:39;;;;;;;1.80;0.30;;;16.70;63.60;16.50;99590.00;;;;340221;28;83653;-86
2021/05/21 00:00:51;;;;;;;1.55;0.40;;;16.70;63.50;16.50;99587.00;;;;342368;28;91511;-86
2021/05/21 00:01:03;;;;;;;1.40;0.38;;;16.70;63.30;16.70;99580.00;;;;342869;28;83783;-87
2021/05/21 00:01:15;;;;;;;1.30;0.40;;;16.70;63.40;16.70;99590.00;;;;341209;28;89138;-86
2021/05/21 00:01:27;;;;;;;1.10;0.40;;;16.70;63.30;16.80;99587.00;;;;340253;28;83329;-86
2021/05/21 00:01:39;;;;;;;1.77;0.30;;;16.70;63.20;16.80;99582.00;;;;341190;28;88988;-86
2021/05/21 00:01:51;;;;;;;1.80;0.40;;;16.70;63.40;16.80;99586.00;;;;342771;28;83853;-87
2021/05/21 00:02:04;;;;;;;2.33;0.40;;;16.70;63.20;16.80;99581.00;;;;343961;28;88082;-87
2021/05/21 00:02:16;;;;;;;1.50;0.30;;;16.70;63.00;16.70;99584.00;;;;345643;28;82463;-86
2021/05/21 00:02:27;;;;;;;1.10;0.30;;;16.70;63.40;16.70;99581.00;;;;342338;28;90503;-86
2021/05/21 00:02:40;;;;;;;0.77;0.28;;;16.70;63.30;16.60;99586.00;;;;341452;28;85461;-86
2021/05/21 00:02:52;;;;;;;0.82;0.20;;;16.70;63.60;16.70;99583.00;;;;341182;28;88147;-87
2021/05/21 00:03:04;;;;;;;0.95;0.20;;;16.70;63.30;16.70;99583.00;;;;341236;28;83510;-86
2021/05/21 00:03:15;;;;;;;2.72;0.52;;;16.60;63.40;16.60;99586.00;;;;340339;28;90931;-87
2021/05/21 00:03:27;;;;;;;2.70;0.60;;;16.60;63.70;16.60;99582.00;;;;340335;28;83711;-86
2021/05/21 00:03:40;;;;;;;1.15;0.45;;;16.60;63.60;16.70;99586.00;;;;341159;28;89369;-87
2021/05/21 00:03:52;;;;;;;1.52;0.45;;;16.60;63.50;16.80;99587.00;;;;340131;28;83737;-86
2021/05/21 00:04:04;;;;;;;2.67;0.50;;;16.60;63.80;16.80;99578.00;;;;339860;28;89381;-86
2021/05/21 00:04:16;;;;;;;2.58;0.50;;;16.70;63.20;16.90;99581.00;;;;342788;28;83263;-86
2021/05/21 00:04:28;;;;;;;1.95;0.50;;;16.70;63.10;17.00;99587.00;;;;342583;28;89580;-86
2021/05/21 00:04:40;;;;;;;1.30;0.40;;;16.70;63.10;17.00;99580.00;;;;342896;28;83326;-86
2021/05/21 00:04:52;;;;;;;1.17;0.40;;;16.70;63.00;16.90;99587.00;;;;342515;28;88354;-86
2021/05/21 00:05:04;;;;;;;1.67;0.45;;;16.70;63.20;16.70;99587.00;;;;341456;28;83431;-85
2021/05/21 00:05:16;;;;;;;4.68;0.57;;;16.70;63.20;16.70;99578.00;;;;339816;28;90716;-86
2021/05/21 00:05:28;;;;;;;5.50;0.55;;;16.70;63.20;16.70;99575.00;;;;338930;28;82377;-86
2021/05/21 00:05:40;;;;;;;2.15;0.30;;;16.70;63.30;16.70;99578.00;;;;339805;28;88593;-86
2021/05/21 00:05:52;;;;;;;1.35;0.20;;;16.70;63.10;16.70;99584.00;;;;342866;28;83412;-86
2021/05/21 00:06:04;;;;;;;0.90;0.20;;;16.70;63.00;16.80;99569.00;;;;339918;28;89394;-87
2021/05/21 00:06:15;;;;;;;1.42;0.50;;;16.70;62.90;16.80;99580.00;;;;343767;28;83803;-86
2021/05/21 00:06:28;;;;;;;1.60;0.50;;;16.70;62.90;16.80;99570.00;;;;342315;28;91683;-86
2021/05/21 00:06:41;;;;;;;1.27;0.35;;;16.70;62.80;16.80;99586.00;;;;343772;28;83527;-86
2021/05/21 00:06:53;;;;;;;1.92;0.50;;;16.70;62.80;16.80;99582.00;;;;341133;28;89205;-86
2021/05/21 00:07:05;;;;;;;2.22;0.65;;;16.70;63.70;16.90;99586.00;;;;340325;28;82313;-87
2021/05/21 00:07:17;;;;;;;1.45;0.50;;;16.70;62.70;16.90;99580.00;;;;340309;28;89410;-86
2021/05/21 00:07:29;;;;;;;1.35;0.40;;;16.70;62.80;16.70;99574.00;;;;341501;28;84068;-86
2021/05/21 00:07:40;;;;;;;1.38;0.22;;;16.70;63.10;16.70;99579.00;;;;341037;28;91235;-87
2021/05/21 00:07:52;;;;;;;1.85;0.25;;;16.70;63.20;16.70;99574.00;;;;342901;28;83961;-86
2021/05/21 00:08:04;;;;;;;3.28;0.30;;;16.70;63.10;16.60;99578.00;;;;339903;28;89410;-87
2021/05/21 00:08:16;;;;;;;2.72;0.30;;;16.70;63.10;16.60;99578.00;;;;340113;28;84930;-86
2021/05/21 00:08:28;;;;;;;1.80;0.30;;;16.70;63.30;16.50;99581.00;;;;342493;28;90001;-85
2021/05/21 00:08:40;;;;;;;1.60;0.50;;;16.70;63.40;16.60;99583.00;;;;341415;28;83283;-86
2021/05/21 00:08:52;;;;;;;2.30;0.55;;;16.70;63.30;16.70;99574.00;;;;339815;28;89557;-86
2021/05/21 00:09:05;;;;;;;2.10;0.55;;;16.70;63.90;16.80;99566.00;;;;341359;28;83473;-86
2021/05/21 00:09:16;;;;;;;1.40;0.57;;;16.70;63.20;16.90;99582.00;;;;342015;28;90561;-86
2021/05/21 00:09:28;;;;;;;1.25;0.47;;;16.70;63.20;16.90;99576.00;;;;341739;28;82579;-86
2021/05/21 00:09:40;;;;;;;0.93;0.30;;;16.70;63.10;17.00;99579.00;;;;341098;28;89347;-87
2021/05/21 00:09:52;;;;;;;1.08;0.30;;;16.70;63.00;17.00;99586.00;;;;341451;28;84028;-86
2021/05/21 00:10:05;;;;;;;1.02;0.30;;;16.70;62.90;16.70;99574.00;;;;338576;28;89198;-86
2021/05/21 00:10:17;;;;;;;1.15;0.40;;;16.70;63.10;16.60;99582.00;;;;339283;28;83321;-87
2021/05/21 00:10:28;;;;;;;1.60;0.40;;;16.80;63.20;16.50;99574.00;;;;339782;28;90658;-87
2021/05/21 00:10:41;;;;;;;1.85;0.47;;;16.70;63.30;16.40;99574.00;;;;340174;28;83481;-86
2021/05/21 00:10:53;;;;;;;1.92;0.40;;;16.70;63.60;16.50;99581.00;;;;341117;28;89161;-86
2021/05/21 00:11:04;;;;;;;1.23;0.40;;;16.70;63.70;16.70;99574.00;;;;338952;28;82295;-87
2021/05/21 00:11:16;;;;;;;1.45;0.32;;;16.70;63.30;16.70;99568.00;;;;339811;28;89928;-87
2021/05/21 00:11:28;;;;;;;1.42;0.30;;;16.70;63.60;16.70;99582.00;;;;338935;28;83339;-86
2021/05/21 00:11:40;;;;;;;1.95;0.38;;;16.70;63.50;16.80;99577.00;;;;341173;28;89224;-87
2021/05/21 00:11:52;;;;;;;1.77;0.40;;;16.70;63.30;16.70;99572.00;;;;340149;28;83414;-86
2021/05/21 00:12:04;;;;;;;1.88;0.32;;;16.70;63.30;16.80;99567.00;;;;339944;28;88359;-86
2021/05/21 00:12:16;;;;;;;3.40;0.30;;;16.70;62.90;16.70;99579.00;;;;340620;28;83631;-86
2021/05/21 00:12:28;;;;;;;2.97;0.30;;;16.70;63.10;16.90;99575.00;;;;341897;28;92677;-87
2021/05/21 00:12:40;;;;;;;2.55;0.35;;;16.70;63.10;16.90;99573.00;;;;341630;28;82379;-86
2021/05/21 00:12:52;;;;;;;2.33;0.30;;;16.70;63.10;17.00;99572.00;;;;340949;28;91802;-86
2021/05/21 00:13:04;;;;;;;2.13;0.30;;;16.70;63.10;17.00;99570.00;;;;341548;28;83345;-86
2021/05/21 00:13:16;;;;;;;1.58;0.30;;;16.70;63.30;17.00;99575.00;;;;340241;28;89320;-86
2021/05/21 00:13:28;;;;;;;1.02;0.30;;;16.70;63.30;16.80;99571.00;;;;340209;28;83322;-86
2021/05/21 00:13:40;;;;;;;1.20;0.25;;;16.80;63.10;16.60;99573.00;;;;341044;28;89734;-86
2021/05/21 00:13:52;;;;;;;1.60;0.30;;;16.80;63.10;16.80;99567.00;;;;340207;28;83663;-87
2021/05/21 00:14:04;;;;;;;1.38;0.30;;;16.80;63.70;16.90;99567.00;;;;341132;28;90849;-86
2021/05/21 00:14:16;;;;;;;2.03;0.40;;;16.80;63.20;16.80;99563.00;;;;341521;28;83360;-87
2021/05/21 00:14:28;;;;;;;3.15;0.50;;;16.80;63.10;16.80;99573.00;;;;340965;28;89390;-86
2021/05/21 00:14:40;;;;;;;2.17;0.40;;;16.80;63.00;16.70;99570.00;;;;338706;28;83539;-86
2021/05/21 00:14:52;;;;;;;2.05;0.40;;;16.80;63.00;16.70;99567.00;;;;339713;28;88731;-86
2021/05/21 00:15:08;;;;;;;1.27;0.30;;;16.80;63.30;16.90;99572.00;;;;344291;28;82577;-86
2021/05/21 00:15:19;;;;;;;1.67;0.32;;;16.80;62.90;16.80;99577.00;;;;339947;28;89007;-86
2021/05/21 00:15:31;;;;;;;1.40;0.40;;;16.80;63.30;16.60;99571.00;;;;339169;28;83487;-86
2021/05/21 00:15:43;;;;;;;2.08;0.30;;;16.80;63.50;16.80;99567.00;;;;340969;28;90806;-86
2021/05/21 00:15:55;;;;;;;3.45;0.38;;;16.80;63.40;16.80;99567.00;;;;340220;28;82493;-86
2021/05/21 00:16:07;;;;;;;2.95;0.55;;;16.80;63.70;16.70;99570.00;;;;339926;28;89515;-87
2021/05/21 00:16:19;;;;;;;3.65;0.60;;;16.80;63.50;16.60;99563.00;;;;340765;28;83760;-86
2021/05/21 00:16:31;;;;;;;2.35;0.32;;;16.80;63.20;16.50;99578.00;;;;339815;28;89945;-86
2021/05/21 00:16:42;;;;;;;1.10;0.30;;;16.70;63.10;16.50;99568.00;;;;338752;28;83716;-86
2021/05/21 00:16:54;;;;;;;1.15;0.25;;;16.70;63.00;16.60;99574.00;;;;338057;28;91488;-87
2021/05/21 00:17:06;;;;;;;1.17;0.30;;;16.70;63.10;16.50;99564.00;;;;340283;28;83411;-86
2021/05/21 00:17:18;;;;;;;1.25;0.25;;;16.70;63.00;16.60;99568.00;;;;338531;28;89458;-87
2021/05/21 00:17:30;;;;;;;1.02;0.30;;;16.70;62.90;16.60;99569.00;;;;338928;28;82438;-86
2021/05/21 00:17:42;;;;;;;1.00;0.30;;;16.70;62.90;16.60;99577.00;;;;341194;28;86980;-86
2021/05/21 00:17:54;;;;;;;1.05;0.30;;;16.70;63.00;16.70;99574.00;;;;339694;28;83796;-86
2021/05/21 00:18:06;;;;;;;0.90;0.30;;;16.70;62.80;16.60;99567.00;;;;339890;28;89813;-86
2021/05/21 00:18:18;;;;;;;1.92;0.30;;;16.70;63.00;16.50;99569.00;;;;338953;28;83748;-86
2021/05/21 00:18:30;;;;;;;2.22;0.40;;;16.70;62.90;16.60;99577.00;;;;340953;28;92001;-86
2021/05/21 00:18:42;;;;;;;1.85;0.45;;;16.70;62.70;16.70;99573.00;;;;340254;28;83447;-86
2021/05/21 00:18:53;;;;;;;1.00;0.40;;;16.70;62.50;16.70;99567.00;;;;341171;28;88128;-87
2021/05/21 00:19:05;;;;;;;1.50;0.30;;;16.70;63.00;16.70;99568.00;;;;343020;28;83639;-86
2021/05/21 00:19:17;;;;;;;2.10;0.30;;;16.70;63.20;16.60;99569.00;;;;340909;28;91416;-86
2021/05/21 00:19:29;;;;;;;1.92;0.30;;;16.70;63.10;16.70;99568.00;;;;340214;28;83340;-86
2021/05/21 00:19:41;;;;;;;1.17;0.30;;;16.70;62.90;16.70;99569.00;;;;341080;28;90752;-86
2021/05/21 00:19:52;;;;;;;1.30;0.40;;;16.70;63.00;16.60;99573.00;;;;338829;28;83402;-86
2021/05/21 00:20:05;;;;;;;1.17;0.30;;;16.70;63.20;16.60;99569.00;;;;339906;28;88633;-86
2021/05/21 00:20:17;;;;;;;0.95;0.22;;;16.70;63.10;16.50;99576.00;;;;338929;28;83386;-86
2021/05/21 00:20:29;;;;;;;1.60;0.28;;;16.70;63.00;16.50;99569.00;;;;339618;28;91871;-86
2021/05/21 00:20:41;;;;;;;1.50;0.28;;;16.70;63.20;16.60;99563.00;;;;340006;28;83402;-86
2021/05/21 00:20:52;;;;;;;1.05;0.30;;;16.70;63.00;16.60;99568.00;;;;338429;28;89044;-86
2021/05/21 00:21:05;;;;;;;1.20;0.30;;;16.70;63.00;16.70;99567.00;;;;341446;28;83941;-87
2021/05/21 00:21:17;;;;;;;1.17;0.30;;;16.70;62.90;16.70;99567.00;;;;340393;28;88909;-87
2021/05/21 00:21:29;;;;;;;1.20;0.30;;;16.70;62.90;16.60;99561.00;;;;341992;28;83278;-87
2021/05/21 00:21:41;;;;;;;1.00;0.38;;;16.70;63.40;16.50;99567.00;;;;342590;28;89490;-86
2021/05/21 00:21:53;;;;;;;0.82;0.30;;;16.70;63.30;16.70;99562.00;;;;341381;28;83330;-87
2021/05/21 00:22:04;;;;;;;1.00;0.30;;;16.70;63.20;16.60;99564.00;;;;337220;28;89373;-86
2021/05/21 00:22:16;;;;;;;1.42;0.20;;;16.70;63.30;16.70;99566.00;;;;338774;28;83351;-86
2021/05/21 00:22:28;;;;;;;1.10;0.20;;;16.70;63.30;16.60;99562.00;;;;338554;28;88745;-86
2021/05/21 00:22:40;;;;;;;1.25;0.20;;;16.70;63.30;16.60;99561.00;;;;340248;28;82397;-87
2021/05/21 00:22:52;;;;;;;0.73;0.20;;;16.70;63.30;16.80;99566.00;;;;338044;28;92707;-86
2021/05/21 00:23:04;;;;;;;0.82;0.30;;;16.80;63.00;16.90;99566.00;;;;338861;28;83505;-86
2021/05/21 00:23:17;;;;;;;1.25;0.30;;;16.80;62.90;16.90;99563.00;;;;339964;28;89114;-86
2021/05/21 00:23:29;;;;;;;3.00;0.40;;;16.70;63.00;16.90;99563.00;;;;340167;28;83384;-86
2021/05/21 00:23:41;;;;;;;2.50;0.50;;;16.80;62.70;17.00;99556.00;;;;338550;28;88883;-86
2021/05/21 00:23:52;;;;;;;1.75;0.40;;;16.80;62.70;17.00;99561.00;;;;337510;28;83980;-87
2021/05/21 00:24:05;;;;;;;1.73;0.22;;;16.80;62.60;17.00;99562.00;;;;337115;28;91639;-86
2021/05/21 00:24:16;;;;;;;2.90;0.30;;;16.80;62.50;17.00;99565.00;;;;339497;28;83515;-87
2021/05/21 00:24:28;;;;;;;3.35;0.30;;;16.80;62.70;17.00;99564.00;;;;340079;28;91803;-86
2021/05/21 00:24:40;;;;;;;2.75;0.30;;;16.80;62.80;16.80;99563.00;;;;341442;28;83412;-86
2021/05/21 00:24:52;;;;;;;1.50;0.20;;;16.80;63.10;16.90;99566.00;;;;338540;28;88340;-86
2021/05/21 00:25:04;;;;;;;1.38;0.20;;;16.80;62.80;16.70;99560.00;;;;341444;28;83651;-86
2021/05/21 00:25:16;;;;;;;1.33;0.20;;;16.80;63.80;16.60;99563.00;;;;339802;28;89948;-87
2021/05/21 00:25:28;;;;;;;1.27;0.35;;;16.80;63.00;16.70;99568.00;;;;338568;28;82451;-86
2021/05/21 00:25:40;;;;;;;1.42;0.47;;;16.80;62.80;16.70;99567.00;;;;338473;28;89666;-86
2021/05/21 00:25:52;;;;;;;1.67;0.55;;;16.80;62.70;16.90;99567.00;;;;340091;28;83625;-86
2021/05/21 00:26:03;;;;;;;1.42;0.35;;;16.80;62.70;16.80;99564.00;;;;338517;28;89359;-86
2021/05/21 00:26:15;;;;;;;0.90;0.30;;;16.80;62.90;16.60;99565.00;;;;341491;28;83576;-86
2021/05/21 00:26:27;;;;;;;1.85;0.40;;;16.80;62.90;16.60;99569.00;;;;341030;28;92319;-86
2021/05/21 00:26:39;;;;;;;2.35;0.70;;;16.80;63.20;16.60;99573.00;;;;341639;28;83266;-87
2021/05/21 00:26:51;;;;;;;1.85;0.65;;;16.80;63.00;16.60;99570.00;;;;341015;28;90719;-86
2021/05/21 00:27:03;;;;;;;1.80;0.52;;;16.70;63.00;16.50;99568.00;;;;342870;28;82548;-86
2021/05/21 00:27:15;;;;;;;1.42;0.32;;;16.70;62.90;16.50;99576.00;;;;341777;28;91044;-86
2021/05/21 00:27:26;;;;;;;2.70;0.30;;;16.70;63.00;16.50;99570.00;;;;342441;28;82758;-84
2021/05/21 00:27:38;;;;;;;2.15;0.20;;;16.70;63.10;16.50;99570.00;;;;342183;28;89822;-87
2021/05/21 00:27:50;;;;;;;0.98;0.20;;;16.70;63.10;16.50;99572.00;;;;341554;28;82530;-87
2021/05/21 00:28:02;;;;;;;0.75;0.20;;;16.70;63.30;16.50;99576.00;;;;341072;28;91282;-87
2021/05/21 00:28:14;;;;;;;1.95;0.20;;;16.70;63.20;16.60;99571.00;;;;341262;28;83441;-87
2021/05/21 00:28:26;;;;;;;1.92;0.20;;;16.70;63.10;16.70;99571.00;;;;341009;28;93347;-87
2021/05/21 00:28:37;;;;;;;1.52;0.20;;;16.70;62.90;16.80;99572.00;;;;341569;28;83718;-86
2021/05/21 00:28:49;;;;;;;1.77;0.20;;;16.70;63.40;16.80;99569.00;;;;341227;28;88283;-86
2021/05/21 00:29:01;;;;;;;1.65;0.20;;;16.70;63.00;16.70;99574.00;;;;341515;28;83465;-87
2021/05/21 00:29:13;;;;;;;1.20;0.30;;;16.70;63.30;16.50;99571.00;;;;339793;28;91187;-87
2021/05/21 00:29:25;;;;;;;1.00;0.22;;;16.70;63.40;16.60;99573.00;;;;341490;28;83440;-86
2021/05/21 00:29:37;;;;;;;1.77;0.30;;;16.70;63.10;16.60;99582.00;;;;342437;28;90710;-87
2021/05/21 00:29:48;;;;;;;1.52;0.25;;;16.70;63.80;16.60;99572.00;;;;341605;28;83322;-86
2021/05/21 00:30:01;;;;;;;1.10;0.20;;;16.70;63.60;16.70;99577.00;;;;342498;28;90011;-86
2021/05/21 00:30:13;;;;;;;1.60;0.30;;;16.60;63.30;16.80;99572.00;;;;340029;28;83418;-86
2021/05/21 00:30:25;;;;;;;1.60;0.30;;;16.70;63.30;16.50;99580.00;;;;342238;28;91065;-87
2021/05/21 00:30:37;;;;;;;1.30;0.20;;;16.60;63.30;16.40;99582.00;;;;342967;28;82408;-86
2021/05/21 00:30:49;;;;;;;1.98;0.20;;;16.70;63.70;16.30;99577.00;;;;341056;28;89855;-86
2021/05/21 00:31:01;;;;;;;2.00;0.30;;;16.70;64.20;16.40;99581.00;;;;341267;28;82453;-86
2021/05/21 00:31:12;;;;;;;1.50;0.32;;;16.70;64.30;16.40;99574.00;;;;339758;28;89359;-86
2021/05/21 00:31:24;;;;;;;1.33;0.32;;;16.70;64.20;16.40;99574.00;;;;341373;28;83734;-86
2021/05/21 00:31:36;;;;;;;2.20;0.30;;;16.60;63.80;16.40;99575.00;;;;341140;28;89489;-87
2021/05/21 00:31:48;;;;;;;1.92;0.22;;;16.70;64.00;16.40;99575.00;;;;341538;28;83323;-86
2021/05/21 00:32:00;;;;;;;1.48;0.30;;;16.60;64.10;16.40;99577.00;;;;341194;28;88392;-86
2021/05/21 00:32:12;;;;;;;1.13;0.28;;;16.60;64.20;16.40;99577.00;;;;340142;28;83583;-86
2021/05/21 00:32:24;;;;;;;1.42;0.30;;;16.60;64.10;16.30;99575.00;;;;341034;28;93416;-86
2021/05/21 00:32:36;;;;;;;1.38;0.30;;;16.60;64.20;16.30;99579.00;;;;341591;28;83830;-86
2021/05/21 00:32:48;;;;;;;1.70;0.40;;;16.60;64.50;16.30;99578.00;;;;341252;28;88884;-87
2021/05/21 00:33:00;;;;;;;1.33;0.32;;;16.60;64.30;16.20;99568.00;;;;340239;28;82437;-86
2021/05/21 00:33:11;;;;;;;1.60;0.43;;;16.60;64.30;16.30;99571.00;;;;341158;28;88346;-86
2021/05/21 00:33:23;;;;;;;1.42;0.40;;;16.50;64.20;16.30;99574.00;;;;341723;28;84206;-86
2021/05/21 00:33:35;;;;;;;1.55;0.30;;;16.60;64.40;16.30;99575.00;;;;339932;28;89641;-86
2021/05/21 00:33:47;;;;;;;1.58;0.20;;;16.50;65.10;16.40;99574.00;;;;342391;28;82606;-86
2021/05/21 00:33:59;;;;;;;1.17;0.20;;;16.50;64.10;16.60;99571.00;;;;339825;28;88027;-86
2021/05/21 00:34:11;;;;;;;1.42;0.20;;;16.50;63.80;16.50;99571.00;;;;341508;28;83380;-86
2021/05/21 00:34:23;;;;;;;1.80;0.30;;;16.60;64.10;16.60;99567.00;;;;338503;28;92337;-87
2021/05/21 00:34:35;;;;;;;1.70;0.30;;;16.60;64.40;16.60;99568.00;;;;338910;28;83836;-85
2021/05/21 00:34:47;;;;;;;1.25;0.40;;;16.60;64.50;16.40;99572.00;;;;338526;28;91823;-86
2021/05/21 00:34:59;;;;;;;2.00;0.40;;;16.60;64.70;16.40;99565.00;;;;341709;28;83342;-86
2021/05/21 00:35:11;;;;;;;1.75;0.35;;;16.60;64.80;16.40;99568.00;;;;341225;28;89055;-87
2021/05/21 00:35:23;;;;;;;0.68;0.30;;;16.60;64.80;16.40;99567.00;;;;339016;28;83030;-86
2021/05/21 00:35:34;;;;;;;0.65;0.30;;;16.50;64.50;16.50;99555.00;;;;341231;28;89736;-87
2021/05/21 00:35:46;;;;;;;1.13;0.30;;;16.50;64.20;16.50;99569.00;;;;340333;28;83350;-86
2021/05/21 00:35:58;;;;;;;2.63;0.30;;;16.60;64.60;16.50;99572.00;;;;338596;28;89594;-87
2021/05/21 00:36:10;;;;;;;3.00;0.40;;;16.60;64.70;16.40;99567.00;;;;341408;28;83018;-87
2021/05/21 00:36:22;;;;;;;3.10;0.50;;;16.60;64.90;16.30;99572.00;;;;341360;28;90328;-86
2021/05/21 00:36:34;;;;;;;3.45;0.50;;;16.50;64.90;16.20;99554.00;;;;341484;28;83468;-86
2021/05/21 00:36:46;;;;;;;3.05;0.43;;;16.50;64.70;16.20;99576.00;;;;341042;28;91808;-86
2021/05/21 00:36:58;;;;;;;2.10;0.32;;;16.50;64.50;16.30;99562.00;;;;340278;28;83670;-86
2021/05/21 00:37:10;;;;;;;1.88;0.30;;;16.50;64.30;16.40;99564.00;;;;339943;28;89193;-86
2021/05/21 00:37:22;;;;;;;2.45;0.25;;;16.50;64.50;16.40;99552.00;;;;341458;28;84417;-86
2021/05/21 00:37:33;;;;;;;1.50;0.30;;;16.50;64.70;16.40;99561.00;;;;339919;28;88347;-86
2021/05/21 00:37:45;;;;;;;1.25;0.40;;;16.50;64.70;16.40;99562.00;;;;340025;28;84217;-85
2021/05/21 00:37:57;;;;;;;2.22;0.40;;;16.50;64.90;16.30;99563.00;;;;339866;28;89567;-87
2021/05/21 00:38:09;;;;;;;3.05;0.30;;;16.50;66.10;16.50;99562.00;;;;341489;28;82471;-87
2021/05/21 00:38:21;;;;;;;3.08;0.30;;;16.50;65.70;16.50;99560.00;;;;341245;28;91018;-86
2021/05/21 00:38:32;;;;;;;0.98;0.40;;;16.50;65.00;16.60;99561.00;;;;342883;28;83993;-86
2021/05/21 00:38:44;;;;;;;1.15;0.35;;;16.50;64.90;16.60;99566.00;;;;342559;28;92457;-87
2021/05/21 00:38:56;;;;;;;1.60;0.30;;;16.50;64.80;16.50;99561.00;;;;342796;28;83103;-86
2021/05/21 00:39:08;;;;;;;1.80;0.30;;;16.50;65.40;16.50;99562.00;;;;342558;28;89761;-86
2021/05/21 00:39:20;;;;;;;1.85;0.30;;;16.50;65.10;16.60;99560.00;;;;340297;28;83595;-86
2021/05/21 00:39:32;;;;;;;1.72;0.26;;;16.50;64.70;16.70;99562.00;;;;342870;28;89583;-86
2021/05/21 00:39:43;;;;;;;1.42;0.30;;;16.50;64.60;16.70;99564.00;;;;341166;28;82414;-86
2021/05/21 00:39:55;;;;;;;1.00;0.30;;;16.60;64.80;16.60;99556.00;;;;338576;28;89130;-86
2021/05/21 00:40:09;;;;;;;0.77;0.22;;;16.60;65.20;16.60;99560.00;;;;341474;28;83297;-86
2021/05/21 00:40:22;;;;;;;1.25;0.32;;;16.60;65.30;16.60;99550.00;;;;340314;28;91717;-86
2021/05/21 00:40:34;;;;;;;2.05;0.40;;;16.50;65.00;16.40;99552.00;;;;338753;28;83389;-86
2021/05/21 00:40:45;;;;;;;3.53;0.35;;;16.50;65.00;16.20;99552.00;;;;338602;28;88339;-86
2021/05/21 00:41:00;;;;;;;3.65;0.30;;;16.50;65.10;16.30;99565.00;;;;338783;28;83589;-87
2021/05/21 00:41:12;;;;;;;3.60;0.40;;;16.50;65.50;16.40;99557.00;;;;342457;28;90334;-87
2021/05/21 00:41:25;;;;;;;3.85;0.40;;;16.50;65.20;16.60;99551.00;;;;341567;28;83642;-87
2021/05/21 00:41:37;;;;;;;1.98;0.30;;;16.50;64.90;16.50;99560.00;;;;339638;28;91087;-86
2021/05/21 00:41:49;;;;;;;1.42;0.30;;;16.50;65.60;16.50;99551.00;;;;340252;28;83281;-87
2021/05/21 00:42:01;;;;;;;1.88;0.30;;;16.50;65.40;16.70;99550.00;;;;341200;28;89797;-87
2021/05/21 00:42:13;;;;;;;1.40;0.25;;;16.50;65.00;16.60;99560.00;;;;341276;28;84126;-86
2021/05/21 00:42:24;;;;;;;1.27;0.20;;;16.60;64.90;16.50;99549.00;;;;341630;28;90352;-86
2021/05/21 00:42:37;;;;;;;1.23;0.20;;;16.60;65.10;16.40;99551.00;;;;340083;28;84131;-86
2021/05/21 00:42:49;;;;;;;1.85;0.40;;;16.60;65.30;16.60;99551.00;;;;341077;28;88947;-87
2021/05/21 00:43:01;;;;;;;2.05;0.40;;;16.60;65.20;16.50;99550.00;;;;341546;28;83397;-87
2021/05/21 00:43:16;;;;;;;2.08;0.45;;;16.60;65.20;16.60;99560.00;;;;342533;28;89617;-86
2021/05/21 00:43:27;;;;;;;1.38;0.35;;;16.60;64.90;16.60;99550.00;;;;341485;28;83372;-86
2021/05/21 00:43:39;;;;;;;1.60;0.40;;;16.60;65.00;16.70;99553.00;;;;340781;28;91481;-86
2021/05/21 00:43:56;;;;;;;1.63;0.40;;;16.60;65.00;16.60;99554.00;;;;341506;28;82708;-86
2021/05/21 00:44:08;;;;;;;1.17;0.30;;;16.60;65.00;16.50;99560.00;;;;341065;28;91136;-86
2021/05/21 00:44:20;;;;;;;1.80;0.30;;;16.60;65.10;16.50;99549.00;;;;339959;28;83974;-86
2021/05/21 00:44:31;;;;;;;2.05;0.30;;;16.70;65.20;16.50;99554.00;;;;339800;28;90374;-86
2021/05/21 00:44:43;;;;;;;2.22;0.30;;;16.60;65.50;16.30;99561.00;;;;340153;28;83441;-86
2021/05/21 00:44:58;;;;;;;2.50;0.30;;;16.60;65.40;16.20;99557.00;;;;338337;28;88815;-86
2021/05/21 00:45:10;;;;;;;1.80;0.40;;;16.60;65.20;16.20;99561.00;;;;341367;28;83658;-87
2021/05/21 00:45:22;;;;;;;0.98;0.38;;;16.60;65.10;16.20;99561.00;;;;341356;28;89782;-86
2021/05/21 00:45:34;;;;;;;1.65;0.30;;;16.50;65.00;16.20;99555.00;;;;340012;28;82500;-87
2021/05/21 00:45:46;;;;;;;3.13;0.50;;;16.50;65.10;16.30;99560.00;;;;340424;28;89889;-86
2021/05/21 00:46:00;;;;;;;4.53;0.60;;;16.50;64.70;16.40;99557.00;;;;339987;28;83663;-86
2021/05/21 00:46:11;;;;;;;2.30;0.50;;;16.50;64.60;16.40;99561.00;;;;341099;28;92744;-86
2021/05/21 00:46:24;;;;;;;1.60;0.40;;;16.50;64.50;16.30;99563.00;;;;341405;28;82900;-86
2021/05/21 00:46:36;;;;;;;1.92;0.35;;;16.50;64.60;16.50;99565.00;;;;340961;28;90403;-86
2021/05/21 00:46:48;;;;;;;1.67;0.30;;;16.50;64.70;16.50;99565.00;;;;340186;28;83310;-87
2021/05/21 00:46:59;;;;;;;1.30;0.20;;;16.50;64.50;16.60;99566.00;;;;341183;28;89730;-87
2021/05/21 00:47:11;;;;;;;1.30;0.20;;;16.50;64.70;16.50;99564.00;;;;340101;28;84921;-87
2021/05/21 00:47:23;;;;;;;1.65;0.20;;;16.50;65.00;16.40;99561.00;;;;339735;28;91049;-86
2021/05/21 00:47:35;;;;;;;1.30;0.22;;;16.50;65.00;16.40;99564.00;;;;341476;28;83349;-86
2021/05/21 00:47:47;;;;;;;1.52;0.30;;;16.50;64.80;16.50;99567.00;;;;339750;28;91194;-87
2021/05/21 00:47:59;;;;;;;0.88;0.30;;;16.50;64.70;16.40;99555.00;;;;341580;28;83289;-87
2021/05/21 00:48:11;;;;;;;0.93;0.30;;;16.50;65.30;16.20;99555.00;;;;339637;28;88851;-87
2021/05/21 00:48:23;;;;;;;1.10;0.32;;;16.50;65.50;16.20;99560.00;;;;341712;28;84262;-86
2021/05/21 00:48:34;;;;;;;1.25;0.30;;;16.40;64.70;16.50;99555.00;;;;341032;28;90503;-86
2021/05/21 00:48:46;;;;;;;1.52;0.30;;;16.40;64.30;16.60;99554.00;;;;340632;28;83989;-86
2021/05/21 00:48:58;;;;;;;1.55;0.38;;;16.40;64.30;16.70;99556.00;;;;342531;28;90290;-87
2021/05/21 00:49:10;;;;;;;1.50;0.40;;;16.40;64.10;16.60;99549.00;;;;340243;28;83478;-86
2021/05/21 00:49:22;;;;;;;1.58;0.32;;;16.40;64.50;16.60;99557.00;;;;339688;28;89836;-87
2021/05/21 00:49:33;;;;;;;2.00;0.45;;;16.50;64.60;16.40;99554.00;;;;339814;28;83586;-86
2021/05/21 00:49:45;;;;;;;2.50;0.60;;;16.40;65.20;16.30;99552.00;;;;339617;28;91021;-86
2021/05/21 00:49:57;;;;;;;2.08;0.50;;;16.40;65.20;16.40;99560.00;;;;341569;28;83485;-86
2021/05/21 00:50:10;;;;;;;1.23;0.32;;;16.40;65.00;16.50;99549.00;;;;341032;28;91236;-87
2021/05/21 00:50:21;;;;;;;1.45;0.55;;;16.40;65.20;16.40;99540.00;;;;341515;28;83360;-87
2021/05/21 00:50:33;;;;;;;1.08;0.50;;;16.40;65.30;16.30;99544.00;;;;339792;28;90701;-86
2021/05/21 00:50:45;;;;;;;1.10;0.40;;;16.40;65.40;16.30;99537.00;;;;341581;28;83363;-87
2021/05/21 00:50:57;;;;;;;1.60;0.30;;;16.40;65.60;16.20;99543.00;;;;340973;28;91174;-86
2021/05/21 00:51:09;;;;;;;2.17;0.55;;;16.40;65.80;16.20;99536.00;;;;341562;28;83378;-86
2021/05/21 00:51:21;;;;;;;2.45;0.65;;;16.40;65.90;16.20;99531.00;;;;341622;28;91124;-87
2021/05/21 00:51:33;;;;;;;2.03;0.60;;;16.40;65.80;16.30;99532.00;;;;344053;28;83479;-86
2021/05/21 00:51:46;;;;;;;0.85;0.32;;;16.50;65.50;16.30;99534.00;;;;339812;28;89442;-87
2021/05/21 00:52:01;;;;;;;1.42;0.70;;;16.40;65.30;16.50;99528.00;;;;341521;28;83842;-86
2021/05/21 00:52:13;;;;;;;1.48;0.75;;;16.40;65.20;16.70;99526.00;;;;340923;28;89415;-86
2021/05/21 00:52:27;;;;;;;1.13;0.50;;;16.40;65.20;16.70;99524.00;;;;341525;28;82555;-87
2021/05/21 00:52:41;;;;;;;1.00;0.30;;;16.50;65.20;16.40;99530.00;;;;341094;28;90606;-86
2021/05/21 00:52:53;;;;;;;1.30;0.25;;;16.50;65.60;16.30;99521.00;;;;341334;28;83436;-86
2021/05/21 00:53:05;;;;;;;1.70;0.30;;;16.50;65.50;16.20;99521.00;;;;341167;28;89352;-86
2021/05/21 00:53:18;;;;;;;1.80;0.30;;;16.50;65.50;16.10;99520.00;;;;341616;28;82375;-86
2021/05/21 00:53:30;;;;;;;0.88;0.30;;;16.40;65.50;16.10;99520.00;;;;341124;28;89501;-86
2021/05/21 00:53:41;;;;;;;1.50;0.50;;;16.40;65.40;16.10;99524.00;;;;338909;28;82357;-86
2021/05/21 00:53:53;;;;;;;2.17;0.50;;;16.40;65.60;16.00;99521.00;;;;339825;28;89991;-86
2021/05/21 00:54:05;;;;;;;2.42;0.52;;;16.40;65.50;16.00;99525.00;;;;340242;28;83365;-86